Terminal Aerodrome Forecast
Issued by NWS Tampa Bay Area, FL

Home | Current Version | Previous Version | Text Only | Print | Product List | Glossary On
Versions: 1 2 3 4 5 6 7 8 9 10 11 12 13 14 15 16 17 18 19 20 21 22 23
000
FTUS42 KTBW 190600 AAB
TAFFMY
TAF AMD
KFMY 190616Z 1906/2006 VRB06KT P6SM VCTS SCT010 BKN025CB OVC035
      TEMPO 1906/1908 5SM TSRA BKN010CB OVC025
     FM191000 22008KT P6SM SCT005 BKN025
     FM191500 25012G19KT P6SM FEW020 SCT035
     FM200200 30008KT P6SM FEW035 SCT250=

USA.gov is the U.S. government's official web portal to all federal, state and local government web resources and services.